createdAt,value
2022-12-28T00:01:46.918Z,14.67
2022-12-28T00:04:17.841Z,14.67
2022-12-28T00:06:45.578Z,13.37
2022-12-28T00:09:13.217Z,16.83
2022-12-28T00:11:40.342Z,14.63
2022-12-28T00:14:07.505Z,14.73
2022-12-28T00:16:36.923Z,15.97
2022-12-28T00:19:07.175Z,13.40
2022-12-28T00:21:34.687Z,15.40
2022-12-28T00:24:02.994Z,13.23
2022-12-28T00:26:32.049Z,13.00
2022-12-28T00:29:04.636Z,12.47
2022-12-28T00:31:34.173Z,17.70
2022-12-28T00:34:02.589Z,15.23
2022-12-28T00:37:10.367Z,15.20
2022-12-28T00:39:19.225Z,18.83
2022-12-28T00:41:46.818Z,15.30
2022-12-28T00:44:13.910Z,17.07
2022-12-28T00:46:41.413Z,16.80
2022-12-28T00:49:08.683Z,17.27
2022-12-28T00:51:35.969Z,20.03
2022-12-28T00:54:03.055Z,16.33
2022-12-28T00:56:30.116Z,17.53
2022-12-28T00:58:59.218Z,19.50
2022-12-28T01:01:28.252Z,18.43
2022-12-28T01:03:59.198Z,19.50
2022-12-28T01:06:28.132Z,14.53
2022-12-28T01:08:58.792Z,15.40
2022-12-28T01:11:30.099Z,16.47
2022-12-28T01:14:00.032Z,15.90
2022-12-28T01:16:40.533Z,17.27
2022-12-28T01:19:21.874Z,15.97
2022-12-28T01:22:00.579Z,16.30
2022-12-28T01:24:29.132Z,15.80
2022-12-28T01:27:04.938Z,15.23
2022-12-28T01:29:33.008Z,13.13
2022-12-28T01:32:00.277Z,17.33
2022-12-28T01:34:29.602Z,17.47
2022-12-28T01:36:56.832Z,17.00
2022-12-28T01:39:23.844Z,13.63
2022-12-28T01:41:51.096Z,16.80
2022-12-28T01:44:24.281Z,15.10
2022-12-28T01:46:55.478Z,17.27
2022-12-28T01:49:31.659Z,14.90
2022-12-28T01:52:20.551Z,17.60
2022-12-28T01:55:17.151Z,16.23
2022-12-28T01:57:52.382Z,18.17
2022-12-28T02:00:20.179Z,18.37
2022-12-28T02:02:52.818Z,18.60
2022-12-28T02:05:22.459Z,21.67
2022-12-28T02:08:09.784Z,17.73
2022-12-28T02:10:42.328Z,18.87
2022-12-28T02:13:14.939Z,19.33
2022-12-28T02:15:42.522Z,17.83
2022-12-28T02:18:11.116Z,17.53
2022-12-28T02:20:58.633Z,15.23
2022-12-28T02:23:51.864Z,14.63
2022-12-28T02:26:49.528Z,17.27
2022-12-28T02:29:37.364Z,17.17
2022-12-28T02:32:24.005Z,17.47
2022-12-28T02:35:18.805Z,16.60
2022-12-28T02:37:49.315Z,20.00
2022-12-28T02:40:35.192Z,17.03
2022-12-28T02:43:03.549Z,15.77
2022-12-28T02:46:04.234Z,16.83
2022-12-28T02:49:05.100Z,16.20
2022-12-28T02:52:17.111Z,13.47
2022-12-28T02:55:15.925Z,14.83
2022-12-28T02:57:58.577Z,15.67
2022-12-28T03:00:34.043Z,14.03
2022-12-28T03:03:34.063Z,13.80
2022-12-28T03:06:46.014Z,14.43
2022-12-28T03:09:32.101Z,14.77
2022-12-28T03:12:09.038Z,15.20
2022-12-28T03:14:57.228Z,12.20
2022-12-28T03:17:48.404Z,12.97
2022-12-28T03:20:44.129Z,12.93
2022-12-28T03:23:34.585Z,16.37
2022-12-28T03:26:25.814Z,14.57
2022-12-28T03:29:13.582Z,11.37
2022-12-28T03:31:43.859Z,13.07
2022-12-28T03:34:14.661Z,12.73
2022-12-28T03:37:01.888Z,12.43
2022-12-28T03:39:31.804Z,13.50
2022-12-28T03:42:22.967Z,12.87
2022-12-28T03:45:01.727Z,12.23
2022-12-28T03:47:31.924Z,14.17
2022-12-28T03:49:59.835Z,13.70
2022-12-28T03:52:27.765Z,15.07
2022-12-28T03:54:54.882Z,10.53
2022-12-28T03:57:23.674Z,11.53
2022-12-28T03:59:51.344Z,12.10
2022-12-28T04:02:18.928Z,12.73
2022-12-28T04:04:47.370Z,13.60
2022-12-28T04:07:15.282Z,18.23
2022-12-28T04:09:42.238Z,14.90
2022-12-28T04:12:12.425Z,12.27
2022-12-28T04:14:58.040Z,11.23
2022-12-28T04:17:25.347Z,11.83
2022-12-28T04:19:52.381Z,14.03
2022-12-28T04:22:19.423Z,13.00
2022-12-28T04:24:46.640Z,10.17
2022-12-28T04:27:13.734Z,10.97
2022-12-28T04:29:40.871Z,9.03
2022-12-28T04:32:19.196Z,10.27
2022-12-28T04:34:48.838Z,10.17
2022-12-28T04:37:18.629Z,11.07
2022-12-28T04:39:56.359Z,11.23
2022-12-28T04:42:26.320Z,9.83
2022-12-28T04:44:53.340Z,11.10
2022-12-28T04:47:20.535Z,9.80
2022-12-28T04:49:47.655Z,12.97
2022-12-28T04:52:14.838Z,8.43
2022-12-28T04:54:41.844Z,9.80
2022-12-28T04:57:08.779Z,7.70
2022-12-28T04:59:35.763Z,9.23
2022-12-28T05:02:02.997Z,9.53
2022-12-28T05:04:30.202Z,9.20
2022-12-28T05:06:57.261Z,9.33
2022-12-28T05:09:24.384Z,8.87
2022-12-28T05:11:51.425Z,8.73
2022-12-28T05:14:18.544Z,10.87
2022-12-28T05:16:45.598Z,8.93
2022-12-28T05:19:12.765Z,13.10
2022-12-28T05:21:40.360Z,9.07
2022-12-28T05:24:07.752Z,8.50
2022-12-28T05:26:35.899Z,13.73
2022-12-28T05:29:03.334Z,8.40
2022-12-28T05:31:30.518Z,9.80
2022-12-28T05:33:57.770Z,8.30
2022-12-28T05:36:27.548Z,9.17
2022-12-28T05:38:55.712Z,10.67
2022-12-28T05:41:26.314Z,12.97
2022-12-28T05:43:54.108Z,8.47
2022-12-28T05:46:24.974Z,10.03
2022-12-28T05:48:52.618Z,11.50
2022-12-28T05:51:22.136Z,12.17
2022-12-28T05:53:49.802Z,7.57
2022-12-28T05:56:19.538Z,10.47
2022-12-28T05:58:52.076Z,8.03
2022-12-28T06:01:21.801Z,8.97
2022-12-28T06:03:53.558Z,7.30
2022-12-28T06:06:21.332Z,8.57
2022-12-28T06:08:49.492Z,5.93
2022-12-28T06:11:19.095Z,6.33
2022-12-28T06:13:46.772Z,5.50
2022-12-28T06:16:22.698Z,8.73
2022-12-28T06:18:49.979Z,5.33
2022-12-28T06:21:22.736Z,7.70
2022-12-28T06:23:50.644Z,5.30
2022-12-28T06:26:20.727Z,5.07
2022-12-28T06:28:48.697Z,6.27
2022-12-28T06:31:21.591Z,8.60
2022-12-28T06:33:49.941Z,6.57
2022-12-28T06:36:20.468Z,8.83
2022-12-28T06:38:49.327Z,10.50
2022-12-28T06:41:17.517Z,9.03
2022-12-28T06:43:45.442Z,8.33
2022-12-28T06:46:13.780Z,8.50
2022-12-28T06:48:41.241Z,7.70
2022-12-28T06:51:12.685Z,11.13
2022-12-28T06:53:39.900Z,9.90
2022-12-28T06:56:28.738Z,9.40
2022-12-28T06:59:02.394Z,8.80
2022-12-28T07:01:39.251Z,9.60
2022-12-28T07:04:08.051Z,8.70
2022-12-28T07:06:38.308Z,10.17
2022-12-28T07:09:08.839Z,6.97
2022-12-28T07:11:36.259Z,8.60
2022-12-28T07:14:03.463Z,11.07
2022-12-28T07:18:59.353Z,12.33
2022-12-28T07:21:32.912Z,10.83
2022-12-28T07:24:00.367Z,7.20
2022-12-28T07:26:30.435Z,9.90
2022-12-28T07:28:58.940Z,8.57
2022-12-28T07:31:31.308Z,9.63
2022-12-28T07:34:00.169Z,11.77
2022-12-28T07:36:30.671Z,11.00
2022-12-28T07:38:58.399Z,9.47
2022-12-28T07:41:30.295Z,9.27
2022-12-28T07:43:59.301Z,10.90
2022-12-28T07:46:28.884Z,10.30
2022-12-28T07:49:01.036Z,11.23
2022-12-28T07:51:30.945Z,11.87
2022-12-28T07:53:59.561Z,9.60
2022-12-28T07:56:28.384Z,11.00
2022-12-28T07:58:57.700Z,7.90
2022-12-28T08:01:27.506Z,9.17
2022-12-28T08:03:56.392Z,7.10
2022-12-28T08:06:24.621Z,7.75
2022-12-28T08:08:54.067Z,9.32
2022-12-28T08:11:23.694Z,5.57
2022-12-28T08:13:52.357Z,8.82
2022-12-28T08:16:21.146Z,5.90
2022-12-28T08:18:49.234Z,6.80
2022-12-28T08:21:22.315Z,10.45
2022-12-28T08:23:50.469Z,10.73
2022-12-28T08:26:23.118Z,7.72
2022-12-28T08:28:52.721Z,8.93
2022-12-28T08:31:26.374Z,8.97
2022-12-28T08:33:55.222Z,8.17
2022-12-28T08:36:22.649Z,7.33
2022-12-28T08:38:49.860Z,7.53
2022-12-28T08:41:19.979Z,9.67
2022-12-28T08:43:48.365Z,10.63
2022-12-28T08:46:18.213Z,9.47
2022-12-28T08:48:46.728Z,10.00
2022-12-28T08:51:22.836Z,7.75
2022-12-28T08:53:50.579Z,9.57
2022-12-28T08:56:29.516Z,8.05
2022-12-28T08:58:58.228Z,7.40
2022-12-28T09:01:37.271Z,11.05
2022-12-28T09:04:11.868Z,6.90
2022-12-28T09:06:39.662Z,8.52
2022-12-28T09:09:08.710Z,8.32
2022-12-28T09:11:36.703Z,9.13
2022-12-28T09:14:05.768Z,8.00
2022-12-28T09:16:33.330Z,7.28
2022-12-28T09:19:02.279Z,12.38
2022-12-28T09:21:32.282Z,7.97
2022-12-28T09:23:59.437Z,9.35
2022-12-28T09:26:28.754Z,7.15
2022-12-28T09:28:58.193Z,8.60
2022-12-28T09:31:28.282Z,10.30
2022-12-28T09:36:48.984Z,8.00
2022-12-28T09:39:20.967Z,9.13
2022-12-28T09:42:05.973Z,6.90
2022-12-28T09:44:56.093Z,11.63
2022-12-28T09:47:33.031Z,10.38
2022-12-28T09:50:16.675Z,9.05
2022-12-28T09:53:05.843Z,8.70
2022-12-28T09:55:39.814Z,5.97
2022-12-28T09:58:14.978Z,7.25
2022-12-28T10:00:47.163Z,8.30
2022-12-28T10:03:19.508Z,6.93
2022-12-28T10:05:47.693Z,12.40
2022-12-28T10:08:19.055Z,7.13
2022-12-28T10:10:49.153Z,9.50
2022-12-28T10:13:53.536Z,9.77
2022-12-28T10:16:19.069Z,10.35
2022-12-28T10:18:47.296Z,8.70
2022-12-28T10:21:16.913Z,10.80
2022-12-28T10:24:12.492Z,9.80
2022-12-28T10:26:33.751Z,10.63
2022-12-28T10:29:01.080Z,9.73
2022-12-28T10:31:36.565Z,12.57
2022-12-28T10:34:15.451Z,12.10
2022-12-28T10:36:45.460Z,15.77
2022-12-28T10:39:23.347Z,15.40
2022-12-28T10:41:51.608Z,15.73
2022-12-28T10:44:39.249Z,14.38
2022-12-28T10:47:18.397Z,13.23
2022-12-28T10:50:10.448Z,13.45
2022-12-28T10:52:39.386Z,10.93
2022-12-28T10:55:27.984Z,10.70
2022-12-28T10:58:28.033Z,13.07
2022-12-28T11:00:45.664Z,16.33
2022-12-28T11:03:19.056Z,8.50
2022-12-28T11:05:47.949Z,11.02
2022-12-28T11:08:23.878Z,13.27
2022-12-28T11:10:57.985Z,9.20
2022-12-28T11:13:27.382Z,12.82
2022-12-28T11:15:54.729Z,11.20
2022-12-28T11:18:22.436Z,9.73
2022-12-28T11:20:54.260Z,14.65
2022-12-28T11:23:26.498Z,11.65
2022-12-28T11:25:53.588Z,10.95
2022-12-28T11:28:22.495Z,12.38
2022-12-28T11:30:51.373Z,9.70
2022-12-28T11:33:48.120Z,13.60
2022-12-28T11:36:17.846Z,10.10
2022-12-28T11:38:47.570Z,9.15
2022-12-28T11:41:33.594Z,9.30
2022-12-28T11:44:04.771Z,11.75
2022-12-28T11:46:31.864Z,10.02
2022-12-28T11:49:04.809Z,7.88
2022-12-28T11:51:36.817Z,7.20
2022-12-28T11:54:25.474Z,9.93
2022-12-28T11:56:52.479Z,10.75
2022-12-28T11:59:25.955Z,9.10
2022-12-28T12:01:55.332Z,8.73
2022-12-28T12:04:31.472Z,9.63
2022-12-28T12:07:01.579Z,11.23
2022-12-28T12:09:32.933Z,11.25
2022-12-28T12:12:22.996Z,8.70
2022-12-28T12:15:10.034Z,7.65
2022-12-28T12:17:47.398Z,10.40
2022-12-28T12:20:23.245Z,8.60
2022-12-28T12:22:57.384Z,11.35
2022-12-28T12:25:40.932Z,9.98
2022-12-28T12:28:28.146Z,12.07
2022-12-28T12:30:56.284Z,8.30
2022-12-28T12:33:27.520Z,14.15
2022-12-28T12:36:10.032Z,11.80
2022-12-28T12:39:38.364Z,9.32
2022-12-28T12:42:16.724Z,12.18
2022-12-28T12:44:53.295Z,11.98
2022-12-28T12:47:35.912Z,8.48
2022-12-28T12:50:11.671Z,12.77
2022-12-28T12:53:04.450Z,8.32
2022-12-28T12:55:49.526Z,7.22
2022-12-28T12:58:25.443Z,9.48
2022-12-28T13:01:27.713Z,10.13
2022-12-28T13:03:56.951Z,9.95
2022-12-28T13:06:28.045Z,11.85
2022-12-28T13:09:05.281Z,8.30
2022-12-28T13:11:37.674Z,10.85
2022-12-28T13:14:05.821Z,7.80
2022-12-28T13:16:33.674Z,5.90
2022-12-28T13:19:06.721Z,7.25
2022-12-28T13:21:45.587Z,5.93
2022-12-28T13:24:45.956Z,3.97
2022-12-28T13:27:20.669Z,7.65
2022-12-28T13:29:53.127Z,7.45
2022-12-28T13:32:37.536Z,6.20
2022-12-28T13:35:18.497Z,4.97
2022-12-28T13:38:12.334Z,5.60
2022-12-28T13:40:41.588Z,7.28
2022-12-28T13:43:45.431Z,9.75
2022-12-28T13:46:17.509Z,4.55
2022-12-28T13:48:48.533Z,5.10
2022-12-28T13:51:19.057Z,6.82
2022-12-28T13:53:51.531Z,8.30
2022-12-28T13:56:21.449Z,6.22
2022-12-28T13:58:56.578Z,6.78
2022-12-28T14:01:29.830Z,7.20
2022-12-28T14:04:33.709Z,7.22
2022-12-28T14:06:51.545Z,10.65
2022-12-28T14:09:20.536Z,7.40
2022-12-28T14:11:48.699Z,5.15
2022-12-28T14:14:17.276Z,5.85
2022-12-28T14:16:44.798Z,6.88
2022-12-28T14:19:12.496Z,5.22
2022-12-28T14:21:42.467Z,5.13
2022-12-28T14:24:16.833Z,5.82
2022-12-28T14:26:53.828Z,6.40
2022-12-28T14:29:28.936Z,6.15
2022-12-28T14:32:04.709Z,7.28
2022-12-28T14:34:35.219Z,6.28
2022-12-28T14:37:02.638Z,7.32
2022-12-28T14:39:34.692Z,8.60
2022-12-28T14:42:04.511Z,5.90
2022-12-28T14:44:38.986Z,6.72
2022-12-28T14:47:44.433Z,8.48
2022-12-28T14:50:18.909Z,6.63
2022-12-28T14:52:48.278Z,8.00
2022-12-28T14:55:27.187Z,8.98
2022-12-28T14:58:00.664Z,6.20
2022-12-28T15:00:34.118Z,8.30
2022-12-28T15:03:17.775Z,8.73
2022-12-28T15:05:52.738Z,6.75
2022-12-28T15:08:20.303Z,9.88
2022-12-28T15:10:55.822Z,13.18
2022-12-28T15:13:25.092Z,10.65
2022-12-28T15:15:57.854Z,8.30
2022-12-28T15:18:27.240Z,8.20
2022-12-28T15:20:54.584Z,8.95
2022-12-28T15:23:22.028Z,9.25
2022-12-28T15:25:49.385Z,9.63
2022-12-28T15:28:19.109Z,9.23
2022-12-28T15:30:46.429Z,10.05
2022-12-28T15:33:13.420Z,10.20
2022-12-28T15:35:40.491Z,10.00
2022-12-28T15:38:07.710Z,8.93
2022-12-28T15:40:34.861Z,11.20
2022-12-28T15:43:01.971Z,10.50
2022-12-28T15:45:29.124Z,13.40
2022-12-28T15:47:56.218Z,13.70
2022-12-28T15:50:24.453Z,13.87
2022-12-28T15:52:51.447Z,13.43
2022-12-28T15:55:18.521Z,14.63
2022-12-28T15:57:45.505Z,9.47
2022-12-28T16:00:18.873Z,12.23
2022-12-28T16:02:46.769Z,13.73
2022-12-28T16:05:14.630Z,11.60
2022-12-28T16:07:41.683Z,9.97
2022-12-28T16:10:09.272Z,11.23
2022-12-28T16:12:36.585Z,10.93
2022-12-28T16:15:03.901Z,12.83
2022-12-28T16:17:30.976Z,10.07
2022-12-28T16:19:58.004Z,11.90
2022-12-28T16:22:25.614Z,12.90
2022-12-28T16:24:52.625Z,13.27
2022-12-28T16:27:19.693Z,12.67
2022-12-28T16:29:52.714Z,11.23
2022-12-28T16:32:22.518Z,11.20
2022-12-28T16:34:49.607Z,10.97
2022-12-28T16:37:16.932Z,12.63
2022-12-28T16:39:44.327Z,12.40
2022-12-28T16:42:11.579Z,15.63
2022-12-28T16:44:40.367Z,11.53
2022-12-28T16:47:07.662Z,10.87
2022-12-28T16:49:39.604Z,13.17
2022-12-28T16:52:06.835Z,12.13
2022-12-28T16:54:34.088Z,14.87
2022-12-28T16:57:01.075Z,13.53
2022-12-28T16:59:28.766Z,16.13
2022-12-28T17:01:56.970Z,15.03
2022-12-28T17:04:24.541Z,13.63
2022-12-28T17:06:51.996Z,17.50
2022-12-28T17:09:19.934Z,16.83
2022-12-28T17:11:48.708Z,17.53
2022-12-28T17:14:29.286Z,13.63
2022-12-28T17:17:03.428Z,17.43
2022-12-28T17:19:30.582Z,14.90
2022-12-28T17:21:57.839Z,16.10
2022-12-28T17:24:24.971Z,16.27
2022-12-28T17:26:52.172Z,15.30
2022-12-28T17:29:19.464Z,17.77
2022-12-28T17:31:46.703Z,20.60
2022-12-28T17:34:14.181Z,17.73
2022-12-28T17:36:41.231Z,17.47
2022-12-28T17:39:08.474Z,19.07
2022-12-28T17:41:35.568Z,18.47
2022-12-28T17:44:02.803Z,18.90
2022-12-28T17:46:30.662Z,14.70
2022-12-28T17:48:59.176Z,16.07
2022-12-28T17:51:28.586Z,17.60
2022-12-28T17:53:56.781Z,17.73
2022-12-28T17:56:24.204Z,15.97
2022-12-28T17:58:55.890Z,17.53
2022-12-28T18:01:23.279Z,18.10
2022-12-28T18:03:50.371Z,17.57
2022-12-28T18:06:17.631Z,17.83
2022-12-28T18:08:44.877Z,20.77
2022-12-28T18:11:11.974Z,21.57
2022-12-28T18:13:40.457Z,20.93
2022-12-28T18:16:09.488Z,26.53
2022-12-28T18:18:36.580Z,23.87
2022-12-28T18:21:06.361Z,26.70
2022-12-28T18:23:34.517Z,26.13
2022-12-28T18:26:18.524Z,28.97
2022-12-28T18:28:46.375Z,28.20
2022-12-28T18:31:13.564Z,32.43
2022-12-28T18:33:40.666Z,28.33
2022-12-28T18:36:13.804Z,31.17
2022-12-28T18:38:43.431Z,31.97
2022-12-28T18:41:12.534Z,31.00
2022-12-28T18:43:40.379Z,35.40
2022-12-28T18:46:09.091Z,33.33
2022-12-28T18:48:38.725Z,33.30
2022-12-28T18:51:09.459Z,34.27
2022-12-28T18:53:37.188Z,33.63
2022-12-28T18:56:07.145Z,30.27
2022-12-28T18:58:36.536Z,29.47
2022-12-28T19:01:33.040Z,25.47
2022-12-28T19:04:01.445Z,27.07
2022-12-28T19:06:30.396Z,26.20
2022-12-28T19:09:01.282Z,26.03
2022-12-28T19:11:28.785Z,24.53
2022-12-28T19:13:56.161Z,28.20
2022-12-28T19:16:30.740Z,30.33
2022-12-28T19:18:58.811Z,29.37
2022-12-28T19:21:33.164Z,28.30
2022-12-28T19:24:04.109Z,27.13
2022-12-28T19:26:32.832Z,28.17
2022-12-28T19:29:00.056Z,28.53
2022-12-28T19:31:27.835Z,27.50
2022-12-28T19:33:55.253Z,24.77
2022-12-28T19:36:22.513Z,26.57
2022-12-28T19:38:49.525Z,26.27
2022-12-28T19:41:16.817Z,24.30
2022-12-28T19:43:44.983Z,21.57
2022-12-28T19:46:14.001Z,25.10
2022-12-28T19:48:41.671Z,24.20
2022-12-28T19:51:09.411Z,23.97
2022-12-28T19:53:37.569Z,26.37
2022-12-28T19:56:08.078Z,26.93
2022-12-28T19:58:37.119Z,23.27
2022-12-28T20:01:16.833Z,22.67
2022-12-28T20:03:45.000Z,22.07
2022-12-28T20:06:16.710Z,22.10
2022-12-28T20:08:48.011Z,21.20
2022-12-28T20:11:15.675Z,20.00
2022-12-28T20:13:50.384Z,21.83
2022-12-28T20:16:17.637Z,21.80
2022-12-28T20:18:53.071Z,21.47
2022-12-28T20:21:22.299Z,19.97
2022-12-28T20:23:50.706Z,23.03
2022-12-28T20:26:19.592Z,22.30
2022-12-28T20:28:49.117Z,23.63
2022-12-28T20:31:16.659Z,24.60
2022-12-28T20:33:44.388Z,20.60
2022-12-28T20:36:14.355Z,23.67
2022-12-28T20:38:41.531Z,24.27
2022-12-28T20:41:31.683Z,19.17
2022-12-28T20:44:00.315Z,22.27
2022-12-28T20:46:28.056Z,24.13
2022-12-28T20:48:55.664Z,23.00
2022-12-28T20:51:23.026Z,22.70
2022-12-28T20:53:50.130Z,22.20
2022-12-28T20:56:17.375Z,19.97
2022-12-28T20:58:44.685Z,19.87
2022-12-28T21:01:14.508Z,21.77
2022-12-28T21:03:42.305Z,20.73
2022-12-28T21:06:09.658Z,20.20
2022-12-28T21:08:36.754Z,18.77
2022-12-28T21:11:04.388Z,18.33
2022-12-28T21:13:32.076Z,18.43
2022-12-28T21:15:59.472Z,21.00
2022-12-28T21:18:26.664Z,21.53
2022-12-28T21:21:01.343Z,19.03
2022-12-28T21:23:29.760Z,21.10
2022-12-28T21:26:07.796Z,21.90
2022-12-28T21:28:35.436Z,22.20
2022-12-28T21:31:04.973Z,21.43
2022-12-28T21:33:33.273Z,22.83
2022-12-28T21:36:02.163Z,24.13
2022-12-28T21:38:30.711Z,21.60
2022-12-28T21:41:02.993Z,20.13
2022-12-28T21:43:31.795Z,19.23
2022-12-28T21:46:04.620Z,19.30
2022-12-28T21:48:33.478Z,18.77
2022-12-28T21:51:31.533Z,17.07
2022-12-28T21:54:00.194Z,20.13
2022-12-28T21:56:28.320Z,18.83
2022-12-28T21:58:56.231Z,19.03
2022-12-28T22:01:41.808Z,17.73
2022-12-28T22:04:34.443Z,16.10
2022-12-28T22:07:01.895Z,15.90
2022-12-28T22:09:48.207Z,17.80
2022-12-28T22:12:34.567Z,17.90
2022-12-28T22:15:23.753Z,17.53
2022-12-28T22:17:55.010Z,16.37
2022-12-28T22:20:23.128Z,19.13
2022-12-28T22:22:50.279Z,17.27
2022-12-28T22:25:17.614Z,16.63
2022-12-28T22:27:44.630Z,17.03
2022-12-28T22:30:12.608Z,18.27
2022-12-28T22:32:40.035Z,18.73
2022-12-28T22:35:08.183Z,21.53
2022-12-28T22:37:36.016Z,19.90
2022-12-28T22:40:03.770Z,18.87
2022-12-28T22:42:31.137Z,21.23
2022-12-28T22:44:58.296Z,17.50
2022-12-28T22:47:28.143Z,19.23
2022-12-28T22:49:55.383Z,16.77
2022-12-28T22:52:22.682Z,16.23
2022-12-28T22:54:51.217Z,16.63
2022-12-28T22:57:18.341Z,15.23
2022-12-28T22:59:45.643Z,15.50
2022-12-28T23:02:12.948Z,15.00
2022-12-28T23:04:40.248Z,14.60
2022-12-28T23:07:07.479Z,12.07
2022-12-28T23:09:35.324Z,15.17
2022-12-28T23:12:05.557Z,13.70
2022-12-28T23:15:02.084Z,12.73
2022-12-28T23:17:29.388Z,12.83
2022-12-28T23:20:14.933Z,16.13
2022-12-28T23:23:11.276Z,14.37
2022-12-28T23:26:12.727Z,12.50
2022-12-28T23:28:39.916Z,13.83
2022-12-28T23:31:07.078Z,17.80
2022-12-28T23:33:34.164Z,14.20
2022-12-28T23:36:03.725Z,13.53
2022-12-28T23:38:32.775Z,14.87
2022-12-28T23:41:18.202Z,14.63
2022-12-28T23:43:45.556Z,20.10
2022-12-28T23:46:12.786Z,19.37
2022-12-28T23:48:39.885Z,17.17
2022-12-28T23:51:08.412Z,18.43
2022-12-28T23:53:36.181Z,19.57
2022-12-28T23:56:03.213Z,18.87
2022-12-28T23:58:30.407Z,20.17
